createdAt,value
2019-05-18T00:00:24.022Z,99.90
2019-05-18T00:03:32.552Z,99.90
2019-05-18T00:06:51.338Z,99.90
2019-05-18T00:09:59.978Z,99.90
2019-05-18T00:13:08.611Z,99.90
2019-05-18T00:16:17.445Z,99.90
2019-05-18T00:19:26.088Z,99.90
2019-05-18T00:22:34.720Z,99.90
2019-05-18T00:25:43.323Z,99.90
2019-05-18T00:28:51.957Z,99.90
2019-05-18T00:32:10.668Z,99.90
2019-05-18T00:35:19.276Z,99.90
2019-05-18T00:38:27.933Z,99.90
2019-05-18T00:41:36.568Z,99.90
2019-05-18T00:44:45.595Z,99.90
2019-05-18T00:47:55.218Z,99.90
2019-05-18T00:51:14.030Z,99.90
2019-05-18T00:54:22.732Z,99.90
2019-05-18T00:57:31.409Z,99.90
2019-05-18T01:00:40.096Z,99.90
2019-05-18T01:03:48.734Z,99.90
2019-05-18T01:06:57.350Z,99.90
2019-05-18T01:10:07.848Z,99.90
2019-05-18T01:13:16.374Z,99.90
2019-05-18T01:16:25.032Z,99.90
2019-05-18T01:19:33.742Z,99.90
2019-05-18T01:22:52.477Z,99.90
2019-05-18T01:26:01.012Z,99.90
2019-05-18T01:29:09.652Z,99.90
2019-05-18T01:32:18.280Z,99.90
2019-05-18T01:35:26.875Z,99.90
2019-05-18T01:38:35.494Z,99.90
2019-05-18T01:41:44.128Z,99.90
2019-05-18T01:45:15.895Z,99.90
2019-05-18T01:48:14.649Z,99.90
2019-05-18T01:51:23.478Z,99.90
2019-05-18T01:54:32.082Z,99.90
2019-05-18T01:57:40.734Z,99.90
2019-05-18T02:00:49.558Z,99.90
2019-05-18T02:03:58.155Z,99.90
2019-05-18T02:07:07.901Z,99.90
2019-05-18T02:10:16.564Z,99.90
2019-05-18T02:13:24.910Z,99.90
2019-05-18T02:16:33.536Z,99.90
2019-05-18T02:19:42.142Z,99.90
2019-05-18T02:22:50.772Z,99.90
2019-05-18T02:26:09.498Z,99.90
2019-05-18T02:29:18.216Z,99.90
2019-05-18T02:32:26.854Z,99.90
2019-05-18T02:35:35.529Z,99.90
2019-05-18T02:38:44.368Z,99.90
2019-05-18T02:41:52.999Z,99.90
2019-05-18T02:45:01.662Z,99.90
2019-05-18T02:48:10.430Z,99.90
2019-05-18T02:51:19.208Z,99.90
2019-05-18T02:54:27.732Z,99.90
2019-05-18T02:57:46.413Z,99.90
2019-05-18T03:00:55.030Z,99.90
2019-05-18T03:04:03.576Z,99.90
2019-05-18T03:07:12.167Z,99.90
2019-05-18T03:10:20.978Z,99.90
2019-05-18T03:13:29.537Z,99.90
2019-05-18T03:16:38.149Z,99.90
2019-05-18T03:19:47.018Z,99.90
2019-05-18T03:22:56.044Z,99.90
2019-05-18T03:26:04.848Z,99.90
2019-05-18T03:29:13.954Z,99.90
2019-05-18T03:32:22.593Z,99.90
2019-05-18T03:35:31.213Z,99.90
2019-05-18T03:38:39.924Z,99.90
2019-05-18T03:41:48.435Z,99.90
2019-05-18T03:45:08.278Z,99.90
2019-05-18T03:48:16.935Z,99.90
2019-05-18T03:51:25.544Z,99.90
2019-05-18T03:54:44.290Z,99.90
2019-05-18T03:57:52.929Z,99.90
2019-05-18T04:01:01.548Z,99.90
2019-05-18T04:04:10.191Z,99.90
2019-05-18T04:07:19.941Z,99.90
2019-05-18T04:10:38.797Z,99.90
2019-05-18T04:13:47.485Z,99.90
2019-05-18T04:16:58.346Z,99.90
2019-05-18T04:20:17.490Z,99.90
2019-05-18T04:23:26.030Z,99.90
2019-05-18T04:26:34.636Z,99.90
2019-05-18T04:29:43.199Z,99.90
2019-05-18T04:32:51.876Z,99.90
2019-05-18T04:36:00.528Z,99.90
2019-05-18T04:39:09.638Z,99.90
2019-05-18T04:42:18.313Z,99.90
2019-05-18T04:45:26.954Z,99.90
2019-05-18T04:48:35.609Z,99.90
2019-05-18T04:51:44.233Z,99.90
2019-05-18T04:55:03.039Z,99.90
2019-05-18T04:58:11.824Z,99.90
2019-05-18T05:01:20.568Z,99.90
2019-05-18T05:04:29.379Z,99.90
2019-05-18T05:07:37.784Z,99.90
2019-05-18T05:10:46.516Z,99.90
2019-05-18T05:13:55.143Z,99.90
2019-05-18T05:17:03.801Z,99.90
2019-05-18T05:20:19.655Z,99.90
2019-05-18T05:23:22.927Z,99.90
2019-05-18T05:26:31.786Z,99.90
2019-05-18T05:29:40.347Z,99.90
2019-05-18T05:32:59.120Z,99.90
2019-05-18T05:36:07.794Z,99.90
2019-05-18T05:39:16.341Z,99.90
2019-05-18T05:42:23.610Z,99.90
2019-05-18T05:45:32.220Z,99.90
2019-05-18T05:48:40.954Z,99.90
2019-05-18T05:51:49.458Z,99.90
2019-05-18T05:54:58.201Z,99.90
2019-05-18T05:58:16.792Z,99.90
2019-05-18T06:01:25.501Z,99.90
2019-05-18T06:04:34.204Z,99.90
2019-05-18T06:07:42.935Z,99.60
2019-05-18T06:10:51.620Z,99.70
2019-05-18T06:14:00.295Z,99.30
2019-05-18T06:17:08.978Z,98.90
2019-05-18T06:20:17.836Z,99.00
2019-05-18T06:23:26.517Z,97.80
2019-05-18T06:26:35.185Z,97.50
2019-05-18T06:29:43.804Z,96.70
2019-05-18T06:33:05.122Z,95.50
2019-05-18T06:36:13.690Z,95.40
2019-05-18T06:39:23.209Z,95.00
2019-05-18T06:42:31.920Z,95.50
2019-05-18T06:45:40.479Z,96.20
2019-05-18T06:48:49.121Z,96.40
2019-05-18T06:51:57.756Z,96.30
2019-05-18T06:55:06.782Z,96.20
2019-05-18T06:58:16.145Z,96.00
2019-05-18T07:01:24.885Z,96.40
2019-05-18T07:04:33.510Z,95.90
2019-05-18T07:07:42.235Z,96.20
2019-05-18T07:10:50.980Z,96.00
2019-05-18T07:13:59.587Z,95.90
2019-05-18T07:17:08.317Z,96.40
2019-05-18T07:20:17.248Z,96.40
2019-05-18T07:23:25.956Z,96.10
2019-05-18T07:26:35.820Z,96.00
2019-05-18T07:29:54.609Z,95.60
2019-05-18T07:33:04.370Z,95.20
2019-05-18T07:36:12.863Z,96.20
2019-05-18T07:39:21.677Z,96.40
2019-05-18T07:42:29.237Z,95.70
2019-05-18T07:45:37.999Z,96.70
2019-05-18T07:48:46.506Z,95.50
2019-05-18T07:51:55.248Z,95.60
2019-05-18T07:55:14.765Z,96.10
2019-05-18T07:58:23.552Z,95.70
2019-05-18T08:01:32.173Z,94.30
2019-05-18T08:04:41.005Z,94.60
2019-05-18T08:08:18.906Z,94.20
2019-05-18T08:11:27.847Z,92.10
2019-05-18T08:14:36.554Z,92.30
2019-05-18T08:17:45.298Z,90.90
2019-05-18T08:20:55.409Z,91.00
2019-05-18T08:24:04.227Z,90.40
2019-05-18T08:27:12.887Z,89.10
2019-05-18T08:30:23.174Z,88.60
2019-05-18T08:33:31.900Z,87.80
2019-05-18T08:36:40.464Z,86.70
2019-05-18T08:39:50.375Z,85.80
2019-05-18T08:43:09.342Z,86.60
2019-05-18T08:46:18.158Z,87.50
2019-05-18T08:49:26.641Z,87.70
2019-05-18T08:52:35.306Z,88.00
2019-05-18T08:55:43.829Z,88.40
2019-05-18T08:58:53.470Z,87.10
2019-05-18T09:02:02.099Z,86.80
2019-05-18T09:05:11.468Z,86.10
2019-05-18T09:08:30.275Z,85.60
2019-05-18T09:11:39.138Z,86.30
2019-05-18T09:14:49.006Z,87.10
2019-05-18T09:17:59.963Z,86.90
2019-05-18T09:21:08.668Z,86.50
2019-05-18T09:24:17.420Z,85.60
2019-05-18T09:27:26.142Z,84.30
2019-05-18T09:30:34.836Z,84.50
2019-05-18T09:33:45.356Z,85.30
2019-05-18T09:36:53.957Z,84.90
2019-05-18T09:40:02.672Z,85.40
2019-05-18T09:43:11.430Z,85.60
2019-05-18T09:46:20.145Z,86.10
2019-05-18T09:49:28.758Z,85.60
2019-05-18T09:52:46.084Z,84.80
2019-05-18T09:55:47.937Z,80.60
2019-05-18T09:58:56.696Z,80.40
2019-05-18T10:02:03.760Z,82.30
2019-05-18T10:05:22.376Z,82.70
2019-05-18T10:08:31.039Z,82.80
2019-05-18T10:11:39.767Z,83.20
2019-05-18T10:14:48.392Z,82.60
2019-05-18T10:17:57.087Z,81.20
2019-05-18T10:21:05.732Z,80.70
2019-05-18T10:24:14.402Z,80.20
2019-05-18T10:27:23.084Z,78.90
2019-05-18T10:30:31.706Z,77.80
2019-05-18T10:33:50.508Z,77.50
2019-05-18T10:36:59.111Z,74.20
2019-05-18T10:40:10.981Z,75.60
2019-05-18T10:43:19.712Z,75.10
2019-05-18T10:46:30.110Z,74.80
2019-05-18T10:49:38.903Z,74.20
2019-05-18T10:52:47.542Z,75.00
2019-05-18T10:55:56.155Z,75.00
2019-05-18T10:59:04.874Z,72.90
2019-05-18T11:02:13.499Z,71.50
2019-05-18T11:05:32.357Z,72.00
2019-05-18T11:08:41.126Z,73.00
2019-05-18T11:11:50.729Z,72.20
2019-05-18T11:14:59.464Z,73.00
2019-05-18T11:18:08.208Z,72.90
2019-05-18T11:21:16.798Z,73.90
2019-05-18T11:24:36.688Z,72.90
2019-05-18T11:27:45.541Z,73.20
2019-05-18T11:30:54.041Z,74.10
2019-05-18T11:34:02.989Z,73.90
2019-05-18T11:37:11.556Z,73.60
2019-05-18T11:40:20.526Z,71.40
2019-05-18T11:43:29.139Z,70.70
2019-05-18T11:46:37.882Z,70.00
2019-05-18T11:49:46.685Z,70.00
2019-05-18T11:52:55.532Z,69.90
2019-05-18T11:56:05.397Z,70.70
2019-05-18T11:59:15.728Z,70.90
2019-05-18T12:02:36.273Z,71.30
2019-05-18T12:05:48.840Z,70.50
2019-05-18T12:09:08.363Z,70.70
2019-05-18T12:12:27.191Z,70.90
2019-05-18T12:15:36.043Z,69.90
2019-05-18T12:18:44.766Z,68.00
2019-05-18T12:21:53.657Z,66.90
2019-05-18T12:25:02.262Z,67.60
2019-05-18T12:28:11.066Z,67.80
2019-05-18T12:31:19.743Z,65.70
2019-05-18T12:34:28.494Z,62.60
2019-05-18T12:37:37.121Z,62.40
2019-05-18T12:40:45.993Z,60.70
2019-05-18T12:43:54.661Z,59.30
2019-05-18T12:47:04.026Z,59.50
2019-05-18T12:50:13.155Z,58.50
2019-05-18T12:53:32.023Z,59.20
2019-05-18T12:56:40.834Z,58.90
2019-05-18T12:59:49.470Z,57.10
2019-05-18T13:06:07.762Z,55.20
2019-05-18T13:09:26.563Z,55.20
2019-05-18T13:12:35.248Z,54.00
2019-05-18T13:15:43.965Z,53.20
2019-05-18T13:18:52.976Z,53.30
2019-05-18T13:22:01.895Z,52.10
2019-05-18T13:25:12.267Z,53.00
2019-05-18T13:28:21.938Z,50.60
2019-05-18T13:31:30.769Z,49.40
2019-05-18T13:34:39.294Z,49.60
2019-05-18T13:37:48.094Z,51.50
2019-05-18T13:40:56.929Z,50.80
2019-05-18T13:44:05.823Z,51.10
2019-05-18T13:47:14.521Z,49.80
2019-05-18T13:50:23.609Z,50.40
2019-05-18T13:53:32.336Z,50.60
2019-05-18T13:56:41.065Z,52.20
2019-05-18T13:59:49.731Z,51.30
2019-05-18T14:02:58.341Z,52.20
2019-05-18T14:06:17.182Z,51.10
2019-05-18T14:09:24.465Z,51.80
2019-05-18T14:12:33.286Z,50.30
2019-05-18T14:15:42.024Z,51.80
2019-05-18T14:18:50.778Z,50.90
2019-05-18T14:21:59.332Z,51.40
2019-05-18T14:25:18.831Z,50.40
2019-05-18T14:28:18.507Z,51.10
2019-05-18T14:31:27.085Z,52.30
2019-05-18T14:34:35.807Z,52.60
2019-05-18T14:37:44.629Z,52.60
2019-05-18T14:40:53.337Z,52.40
2019-05-18T14:44:02.079Z,51.20
2019-05-18T14:47:10.859Z,51.60
2019-05-18T14:50:21.273Z,50.90
2019-05-18T14:53:30.104Z,51.20
2019-05-18T14:56:40.617Z,51.10
2019-05-18T14:59:49.252Z,51.70
2019-05-18T15:02:57.954Z,51.40
2019-05-18T15:06:06.568Z,50.80
2019-05-18T15:09:15.365Z,52.20
2019-05-18T15:12:24.091Z,51.00
2019-05-18T15:15:43.067Z,55.20
2019-05-18T15:18:51.699Z,57.40
2019-05-18T15:22:00.191Z,61.40
2019-05-18T15:25:09.075Z,64.50
2019-05-18T15:28:28.838Z,68.80
2019-05-18T15:31:47.990Z,72.10
2019-05-18T15:34:56.818Z,74.80
2019-05-18T15:38:05.410Z,76.30
2019-05-18T15:41:14.267Z,78.00
2019-05-18T15:44:22.795Z,77.00
2019-05-18T15:47:31.622Z,75.90
2019-05-18T15:50:40.352Z,77.00
2019-05-18T15:53:49.012Z,76.90
2019-05-18T15:56:57.715Z,76.30
2019-05-18T16:00:07.435Z,77.30
2019-05-18T16:03:32.555Z,78.10
2019-05-18T16:06:41.317Z,78.00
2019-05-18T16:09:49.975Z,78.40
2019-05-18T16:12:58.564Z,79.30
2019-05-18T16:16:07.233Z,79.60
2019-05-18T16:19:15.894Z,79.20
2019-05-18T16:22:30.517Z,79.10
2019-05-18T16:26:20.822Z,79.80
2019-05-18T16:29:19.323Z,79.50
2019-05-18T16:32:28.045Z,80.00
2019-05-18T16:35:36.632Z,81.00
2019-05-18T16:38:45.487Z,81.30
2019-05-18T16:41:55.147Z,80.70
2019-05-18T16:45:14.621Z,81.20
2019-05-18T16:48:23.454Z,81.50
2019-05-18T16:51:33.248Z,81.90
2019-05-18T16:54:41.827Z,80.30
2019-05-18T16:57:50.516Z,80.50
2019-05-18T17:00:59.097Z,80.80
2019-05-18T17:04:07.815Z,80.80
2019-05-18T17:07:16.527Z,81.50
2019-05-18T17:10:25.030Z,81.20
2019-05-18T17:13:33.903Z,81.00
2019-05-18T17:16:42.324Z,81.10
2019-05-18T17:20:01.167Z,81.80
2019-05-18T17:23:09.830Z,83.10
2019-05-18T17:26:19.779Z,83.70
2019-05-18T17:29:28.352Z,84.30
2019-05-18T17:32:36.864Z,85.10
2019-05-18T17:36:00.322Z,85.50
2019-05-18T17:39:07.853Z,86.30
2019-05-18T17:42:33.143Z,86.80
2019-05-18T17:45:43.414Z,87.10
2019-05-18T17:48:51.975Z,87.40
2019-05-18T17:52:00.485Z,87.90
2019-05-18T17:55:09.205Z,88.20
2019-05-18T17:58:17.842Z,88.70
2019-05-18T18:01:26.349Z,89.20
2019-05-18T18:04:48.879Z,89.40
2019-05-18T18:07:57.112Z,89.60
2019-05-18T18:11:05.628Z,89.90
2019-05-18T18:14:14.275Z,90.10
2019-05-18T18:17:22.906Z,90.30
2019-05-18T18:20:31.458Z,90.80
2019-05-18T18:23:40.055Z,91.00
2019-05-18T18:26:58.768Z,91.50
2019-05-18T18:30:08.410Z,91.80
2019-05-18T18:33:17.080Z,92.10
2019-05-18T18:36:25.812Z,92.40
2019-05-18T18:39:44.475Z,92.70
2019-05-18T18:42:53.161Z,93.10
2019-05-18T18:46:02.377Z,93.10
2019-05-18T18:49:11.023Z,93.40
2019-05-18T18:52:19.533Z,93.60
2019-05-18T18:55:28.081Z,93.80
2019-05-18T18:58:38.065Z,93.90
2019-05-18T19:01:46.712Z,94.10
2019-05-18T19:05:07.420Z,94.10
2019-05-18T19:08:28.241Z,94.50
2019-05-18T19:11:36.824Z,94.70
2019-05-18T19:14:45.472Z,94.70
2019-05-18T19:17:54.034Z,94.90
2019-05-18T19:21:02.643Z,95.00
2019-05-18T19:24:11.180Z,95.20
2019-05-18T19:27:20.150Z,95.20
2019-05-18T19:30:28.694Z,95.20
2019-05-18T19:33:37.329Z,95.30
2019-05-18T19:36:56.123Z,95.20
2019-05-18T19:40:04.938Z,95.30
2019-05-18T19:43:13.529Z,95.30
2019-05-18T19:46:22.159Z,95.40
2019-05-18T19:49:30.772Z,95.60
2019-05-18T19:52:39.504Z,95.50
2019-05-18T19:55:48.045Z,95.30
2019-05-18T19:58:56.665Z,95.70
2019-05-18T20:02:18.338Z,95.80
2019-05-18T20:05:25.680Z,95.80
2019-05-18T20:08:34.356Z,95.90
2019-05-18T20:11:42.932Z,95.80
2019-05-18T20:14:51.506Z,95.70
2019-05-18T20:18:00.164Z,95.70
2019-05-18T20:21:07.747Z,95.50
2019-05-18T20:24:16.426Z,95.60
2019-05-18T20:27:25.207Z,95.70
2019-05-18T20:30:33.827Z,95.90
2019-05-18T20:33:41.127Z,95.90
2019-05-18T20:36:49.747Z,95.90
2019-05-18T20:39:58.344Z,96.20
2019-05-18T20:43:10.055Z,96.40
2019-05-18T20:46:29.010Z,96.50
2019-05-18T20:49:37.570Z,96.70
2019-05-18T20:52:46.176Z,96.90
2019-05-18T20:55:54.818Z,97.00
2019-05-18T20:59:03.586Z,97.30
2019-05-18T21:02:12.261Z,97.30
2019-05-18T21:05:20.957Z,97.60
2019-05-18T21:08:29.545Z,97.70
2019-05-18T21:11:48.329Z,97.50
2019-05-18T21:14:56.957Z,97.70
2019-05-18T21:18:05.509Z,97.80
2019-05-18T21:21:14.138Z,98.00
2019-05-18T21:24:22.659Z,98.10
2019-05-18T21:27:31.645Z,98.10
2019-05-18T21:30:40.167Z,98.20
2019-05-18T21:33:58.825Z,98.10
2019-05-18T21:37:07.409Z,98.40
2019-05-18T21:40:16.253Z,98.50
2019-05-18T21:43:24.766Z,98.30
2019-05-18T21:46:33.465Z,98.40
2019-05-18T21:49:42.003Z,98.50
2019-05-18T21:52:50.518Z,98.60
2019-05-18T21:56:10.314Z,98.70
2019-05-18T21:59:18.951Z,99.00
2019-05-18T22:02:29.107Z,99.00
2019-05-18T22:05:38.101Z,98.80
2019-05-18T22:08:46.726Z,99.10
2019-05-18T22:11:55.345Z,99.20
2019-05-18T22:15:04.294Z,99.20
2019-05-18T22:18:24.020Z,99.10
2019-05-18T22:21:23.324Z,99.10
2019-05-18T22:24:31.969Z,99.30
2019-05-18T22:27:40.727Z,99.40
2019-05-18T22:30:49.561Z,99.50
2019-05-18T22:33:58.046Z,99.40
2019-05-18T22:37:16.846Z,99.40
2019-05-18T22:40:25.549Z,99.80
2019-05-18T22:43:34.177Z,99.90
2019-05-18T22:46:42.910Z,99.90
2019-05-18T22:49:51.604Z,99.90
2019-05-18T22:53:00.575Z,99.90
2019-05-18T22:56:09.293Z,99.90
2019-05-18T22:59:18.017Z,99.90
2019-05-18T23:02:26.545Z,99.90
2019-05-18T23:05:35.161Z,99.90
2019-05-18T23:08:43.978Z,99.90
2019-05-18T23:11:52.654Z,99.90
2019-05-18T23:15:01.651Z,99.90
2019-05-18T23:18:11.998Z,99.90
2019-05-18T23:21:20.623Z,99.90
2019-05-18T23:24:30.075Z,99.90
2019-05-18T23:27:40.048Z,99.90
2019-05-18T23:30:50.392Z,99.90
2019-05-18T23:33:58.697Z,99.90
2019-05-18T23:37:07.423Z,99.90
2019-05-18T23:40:15.903Z,99.90
2019-05-18T23:43:24.676Z,99.90
2019-05-18T23:46:33.385Z,99.90
2019-05-18T23:49:42.001Z,99.90
2019-05-18T23:52:50.770Z,99.90
2019-05-18T23:55:59.684Z,99.90
2019-05-18T23:59:08.421Z,99.90
